KUNU/UNU METAR and TAF weather

Enter ICAO airport designator
Station Type Date Time Source
KUNU METAR 2021/09/24 03:55 UTC NOAA

KUNU 240355Z AUTO 00000KT 10SM SCT055 SCT070 12/08 A2992 RMK AO2 T01210080


Station Type Date Time Source
KUNU Decoded METAR 2021/09/24 03:55 UTC NOAA

Juneau, Dodge County Airport, WI, United States (KUNU) 43-25-36N 088-42-12W
Sep 23, 2021 - 11:55 PM EDT / 2021.09.24 0355 UTC
Wind: Calm:0
Visibility: 10 mile(s):0
Sky conditions: partly cloudy
Temperature: 53.8 F (12.1 C)
Dew Point: 46.4 F (8.0 C)
Relative Humidity: 75%
Pressure (altimeter): 29.92 in. Hg (1013 hPa)
ob: KUNU 240355Z AUTO 00000KT 10SM SCT055 SCT070 12/08 A2992 RMK AO2 T01210080
cycle: 4

Station Type Date Time Source
KUNU TAF UTC NOAA

Error!

Example: see airport list